PWSweather.com
Personal Weather Stations
Station Observations
RIORANCHO
Corrales Heights, Rio Rancho, NM 87124

Corrales HeightsRio Rancho, NM 87124

Lat: 35.241928, Lon: -106.647095

Elevation: 5297

Station Type: Davis Vantage Pro 2 Plus

http://www.weatherriorancho.com

High Low Average
Temperature 57.3°F14.1°C 25.2°F-3.8°C 40.1°F4.5°C
Dew Point 19.2°F-7.1°C 13.3°F-10.4°C 15.7°F-9.1°C
Winds 3.5 mph 5.6 kmh Calm Calm 1.0 mph S1.6 kmh S
Wind Gusts 6.9 mph11.1 kmh -- 2.0 mph3.2 kmh
Humidity 64% 21% 39%
Pressure 30.19 in1022.4 mb 30.00 in1015.9 mb -
Precipitation 0.00 in0.0 mm - -
Hour Temp Dew Point Humidity Winds Wind Gusts Pressure Precip Precip Rate Daily Precip Total
12:00 AM 34.2°F1.2°C 16.5°F-8.6°C 48% 1.2 mph SSE1.9 kmh SSE 3.5 mph5.6 kmh 30.19 in1022.4 mb - 0.00 in0.0 mm 0.00 in0.0 mm
12:10 AM 34.8°F1.6°C 16.1°F-8.8°C 46% Calm Calm -- 30.19 in1022.4 mb - 0.00 in0.0 mm 0.00 in0.0 mm
12:20 AM 34.6°F1.4°C 15.4°F-9.2°C 45% Calm Calm -- 30.18 in1022.0 mb - 0.00 in0.0 mm 0.00 in0.0 mm
12:30 AM 34.2°F1.2°C 15.0°F-9.4°C 45% Calm Calm 1.2 mph1.9 kmh 30.18 in1022.0 mb - 0.00 in0.0 mm 0.00 in0.0 mm
12:40 AM 34.0°F1.1°C 15.3°F-9.3°C 46% Calm Calm 2.3 mph3.7 kmh 30.18 in1022.0 mb - 0.00 in0.0 mm 0.00 in0.0 mm
12:50 AM 34.2°F1.2°C 15.1°F-9.4°C 45% Calm Calm -- 30.18 in1022.0 mb - 0.00 in0.0 mm 0.00 in0.0 mm
01:00 AM 34.9°F1.6°C 14.7°F-9.6°C 43% Calm Calm 1.2 mph1.9 kmh 30.18 in1022.0 mb - 0.00 in0.0 mm 0.00 in0.0 mm
01:10 AM 35.4°F1.9°C 14.6°F-9.7°C 42% Calm Calm -- 30.17 in1021.7 mb - 0.00 in0.0 mm 0.00 in0.0 mm
01:20 AM 35.0°F1.7°C 14.8°F-9.6°C 43% Calm Calm -- 30.17 in1021.7 mb - 0.00 in0.0 mm 0.00 in0.0 mm
01:30 AM 34.6°F1.4°C 14.4°F-9.8°C 43% 1.2 mph SSE1.9 kmh SSE 2.3 mph3.7 kmh 30.17 in1021.7 mb - 0.00 in0.0 mm 0.00 in0.0 mm
01:40 AM 34.1°F1.2°C 14.4°F-9.8°C 44% 1.2 mph SSE1.9 kmh SSE 1.2 mph1.9 kmh 30.17 in1021.7 mb - 0.00 in0.0 mm 0.00 in0.0 mm
01:50 AM 33.2°F0.7°C 14.1°F-9.9°C 45% Calm Calm -- 30.17 in1021.7 mb - 0.00 in0.0 mm 0.00 in0.0 mm
02:00 AM 32.4°F0.2°C 13.9°F-10.1°C 46% Calm Calm -- 30.17 in1021.7 mb - 0.00 in0.0 mm 0.00 in0.0 mm
02:10 AM 32.0°F0.0°C 14.0°F-10.0°C 47% Calm Calm -- 30.16 in1021.3 mb - 0.00 in0.0 mm 0.00 in0.0 mm
02:20 AM 31.5°F-0.3°C 14.1°F-9.9°C 48% Calm Calm -- 30.16 in1021.3 mb - 0.00 in0.0 mm 0.00 in0.0 mm
02:30 AM 31.0°F-0.6°C 14.1°F-9.9°C 49% Calm Calm -- 30.16 in1021.3 mb - 0.00 in0.0 mm 0.00 in0.0 mm
02:40 AM 30.4°F-0.9°C 14.0°F-10.0°C 50% Calm Calm -- 30.16 in1021.3 mb - 0.00 in0.0 mm 0.00 in0.0 mm
02:50 AM 29.8°F-1.2°C 13.9°F-10.1°C 51% Calm Calm -- 30.16 in1021.3 mb - 0.00 in0.0 mm 0.00 in0.0 mm
03:00 AM 29.4°F-1.4°C 13.4°F-10.3°C 51% Calm Calm -- 30.16 in1021.3 mb - 0.00 in0.0 mm 0.00 in0.0 mm
03:10 AM 29.0°F-1.7°C 13.6°F-10.2°C 52% Calm Calm -- 30.16 in1021.3 mb - 0.00 in0.0 mm 0.00 in0.0 mm
03:20 AM 28.8°F-1.8°C 13.3°F-10.4°C 52% Calm Calm -- 30.16 in1021.3 mb - 0.00 in0.0 mm 0.00 in0.0 mm
03:30 AM 28.6°F-1.9°C 14.0°F-10.0°C 54% Calm Calm -- 30.15 in1021.0 mb - 0.00 in0.0 mm 0.00 in0.0 mm
03:40 AM 28.4°F-2.0°C 13.4°F-10.3°C 53% Calm Calm -- 30.15 in1021.0 mb - 0.00 in0.0 mm 0.00 in0.0 mm
03:50 AM 28.0°F-2.2°C 13.5°F-10.3°C 54% Calm Calm -- 30.15 in1021.0 mb - 0.00 in0.0 mm 0.00 in0.0 mm
04:00 AM 27.7°F-2.4°C 13.6°F-10.2°C 55% Calm Calm -- 30.15 in1021.0 mb - 0.00 in0.0 mm 0.00 in0.0 mm
04:10 AM 27.5°F-2.5°C 13.4°F-10.3°C 55% Calm Calm -- 30.15 in1021.0 mb - 0.00 in0.0 mm 0.00 in0.0 mm
04:20 AM 27.3°F-2.6°C 13.7°F-10.2°C 56% Calm Calm -- 30.15 in1021.0 mb - 0.00 in0.0 mm 0.00 in0.0 mm
04:30 AM 27.1°F-2.7°C 13.9°F-10.1°C 57% Calm Calm 1.2 mph1.9 kmh 30.15 in1021.0 mb - 0.00 in0.0 mm 0.00 in0.0 mm
04:40 AM 27.0°F-2.8°C 13.8°F-10.1°C 57% Calm Calm -- 30.14 in1020.7 mb - 0.00 in0.0 mm 0.00 in0.0 mm
04:50 AM 26.9°F-2.8°C 13.6°F-10.2°C 57% Calm Calm -- 30.14 in1020.7 mb - 0.00 in0.0 mm 0.00 in0.0 mm
05:00 AM 26.6°F-3.0°C 13.8°F-10.1°C 58% Calm Calm -- 30.14 in1020.7 mb - 0.00 in0.0 mm 0.00 in0.0 mm
05:10 AM 26.4°F-3.1°C 14.0°F-10.0°C 59% Calm Calm -- 30.14 in1020.7 mb - 0.00 in0.0 mm 0.00 in0.0 mm
05:20 AM 26.3°F-3.2°C 14.3°F-9.8°C 60% Calm Calm -- 30.14 in1020.7 mb - 0.00 in0.0 mm 0.00 in0.0 mm
05:30 AM 26.3°F-3.2°C 14.6°F-9.7°C 61% Calm Calm 1.2 mph1.9 kmh 30.14 in1020.7 mb - 0.00 in0.0 mm 0.00 in0.0 mm
05:40 AM 26.3°F-3.2°C 14.7°F-9.6°C 61% Calm Calm -- 30.14 in1020.7 mb - 0.00 in0.0 mm 0.00 in0.0 mm
05:50 AM 26.3°F-3.2°C 14.7°F-9.6°C 61% Calm Calm -- 30.14 in1020.7 mb - 0.00 in0.0 mm 0.00 in0.0 mm
06:00 AM 26.3°F-3.2°C 15.0°F-9.4°C 62% Calm Calm -- 30.14 in1020.7 mb - 0.00 in0.0 mm 0.00 in0.0 mm
06:10 AM 26.3°F-3.2°C 14.7°F-9.6°C 61% Calm Calm -- 30.15 in1021.0 mb - 0.00 in0.0 mm 0.00 in0.0 mm
06:20 AM 26.2°F-3.2°C 14.6°F-9.7°C 61% Calm Calm -- 30.15 in1021.0 mb - 0.00 in0.0 mm 0.00 in0.0 mm
06:30 AM 26.1°F-3.3°C 14.5°F-9.7°C 61% Calm Calm -- 30.15 in1021.0 mb - 0.00 in0.0 mm 0.00 in0.0 mm
06:40 AM 25.9°F-3.4°C 14.3°F-9.8°C 61% Calm Calm -- 30.16 in1021.3 mb - 0.00 in0.0 mm 0.00 in0.0 mm
06:50 AM 25.7°F-3.5°C 13.7°F-10.2°C 60% Calm Calm -- 30.16 in1021.3 mb - 0.00 in0.0 mm 0.00 in0.0 mm
07:00 AM 25.5°F-3.6°C 13.5°F-10.3°C 60% Calm Calm -- 30.16 in1021.3 mb - 0.00 in0.0 mm 0.00 in0.0 mm
07:10 AM 25.2°F-3.8°C 13.6°F-10.2°C 61% Calm Calm -- 30.16 in1021.3 mb - 0.00 in0.0 mm 0.00 in0.0 mm
07:20 AM 25.4°F-3.7°C 14.5°F-9.7°C 63% Calm Calm -- 30.17 in1021.7 mb - 0.00 in0.0 mm 0.00 in0.0 mm
07:30 AM 25.3°F-3.7°C 14.5°F-9.7°C 63% Calm Calm -- 30.17 in1021.7 mb - 0.00 in0.0 mm 0.00 in0.0 mm
07:40 AM 25.4°F-3.7°C 14.9°F-9.5°C 64% Calm Calm -- 30.17 in1021.7 mb - 0.00 in0.0 mm 0.00 in0.0 mm
07:50 AM 25.6°F-3.6°C 15.1°F-9.4°C 64% Calm Calm -- 30.16 in1021.3 mb - 0.00 in0.0 mm 0.00 in0.0 mm
08:00 AM 25.9°F-3.4°C 15.4°F-9.2°C 64% Calm Calm -- 30.16 in1021.3 mb - 0.00 in0.0 mm 0.00 in0.0 mm
08:10 AM 26.3°F-3.2°C 15.8°F-9.0°C 64% Calm Calm -- 30.16 in1021.3 mb - 0.00 in0.0 mm 0.00 in0.0 mm
08:20 AM 27.1°F-2.7°C 16.5°F-8.6°C 64% Calm Calm -- 30.16 in1021.3 mb - 0.00 in0.0 mm 0.00 in0.0 mm
08:30 AM 30.6°F-0.8°C 16.4°F-8.7°C 55% Calm Calm -- 30.16 in1021.3 mb - 0.00 in0.0 mm 0.00 in0.0 mm
08:40 AM 32.3°F0.2°C 15.8°F-9.0°C 50% Calm Calm 2.3 mph3.7 kmh 30.16 in1021.3 mb - 0.00 in0.0 mm 0.00 in0.0 mm
08:50 AM 33.0°F0.6°C 14.9°F-9.5°C 47% Calm Calm 2.3 mph3.7 kmh 30.16 in1021.3 mb - 0.00 in0.0 mm 0.00 in0.0 mm
09:00 AM 33.7°F0.9°C 14.6°F-9.7°C 45% 2.3 mph S3.7 kmh S 3.5 mph5.6 kmh 30.16 in1021.3 mb - 0.00 in0.0 mm 0.00 in0.0 mm
09:10 AM 34.3°F1.3°C 14.7°F-9.6°C 44% 3.5 mph S5.6 kmh S 5.8 mph9.3 kmh 30.16 in1021.3 mb - 0.00 in0.0 mm 0.00 in0.0 mm
09:20 AM 35.2°F1.8°C 14.9°F-9.5°C 43% 1.2 mph S1.9 kmh S 2.3 mph3.7 kmh 30.17 in1021.7 mb - 0.00 in0.0 mm 0.00 in0.0 mm
09:30 AM 36.0°F2.2°C 14.5°F-9.7°C 41% 1.2 mph S1.9 kmh S 3.5 mph5.6 kmh 30.17 in1021.7 mb - 0.00 in0.0 mm 0.00 in0.0 mm
09:40 AM 36.6°F2.6°C 15.1°F-9.4°C 41% 1.2 mph S1.9 kmh S 5.8 mph9.3 kmh 30.17 in1021.7 mb - 0.00 in0.0 mm 0.00 in0.0 mm
09:50 AM 37.9°F3.3°C 15.1°F-9.4°C 39% 3.5 mph S5.6 kmh S 5.8 mph9.3 kmh 30.17 in1021.7 mb - 0.00 in0.0 mm 0.00 in0.0 mm
10:00 AM 38.4°F3.6°C 15.0°F-9.4°C 38% 2.3 mph S3.7 kmh S 3.5 mph5.6 kmh 30.17 in1021.7 mb - 0.00 in0.0 mm 0.00 in0.0 mm
10:10 AM 39.1°F3.9°C 15.6°F-9.1°C 38% Calm Calm 1.2 mph1.9 kmh 30.17 in1021.7 mb - 0.00 in0.0 mm 0.00 in0.0 mm
10:20 AM 39.6°F4.2°C 15.4°F-9.2°C 37% 1.2 mph S1.9 kmh S 4.6 mph7.4 kmh 30.17 in1021.7 mb - 0.00 in0.0 mm 0.00 in0.0 mm
10:30 AM 39.6°F4.2°C 16.1°F-8.8°C 38% 1.2 mph SSE1.9 kmh SSE 3.5 mph5.6 kmh 30.16 in1021.3 mb - 0.00 in0.0 mm 0.00 in0.0 mm
10:40 AM 40.9°F4.9°C 16.0°F-8.9°C 36% Calm Calm 3.5 mph5.6 kmh 30.16 in1021.3 mb - 0.00 in0.0 mm 0.00 in0.0 mm
10:50 AM 42.3°F5.7°C 16.5°F-8.6°C 35% Calm Calm 3.5 mph5.6 kmh 30.16 in1021.3 mb - 0.00 in0.0 mm 0.00 in0.0 mm
11:00 AM 42.8°F6.0°C 16.3°F-8.7°C 34% 2.3 mph S3.7 kmh S 3.5 mph5.6 kmh 30.15 in1021.0 mb - 0.00 in0.0 mm 0.00 in0.0 mm
11:10 AM 43.3°F6.3°C 16.8°F-8.4°C 34% 1.2 mph S1.9 kmh S 1.2 mph1.9 kmh 30.15 in1021.0 mb - 0.00 in0.0 mm 0.00 in0.0 mm
11:20 AM 45.3°F7.4°C 17.1°F-8.3°C 32% Calm Calm 3.5 mph5.6 kmh 30.14 in1020.7 mb - 0.00 in0.0 mm 0.00 in0.0 mm
11:30 AM 46.3°F7.9°C 18.0°F-7.8°C 32% Calm Calm 1.2 mph1.9 kmh 30.14 in1020.7 mb - 0.00 in0.0 mm 0.00 in0.0 mm
11:40 AM 46.9°F8.3°C 17.8°F-7.9°C 31% 2.3 mph SSE3.7 kmh SSE 3.5 mph5.6 kmh 30.12 in1020.0 mb - 0.00 in0.0 mm 0.00 in0.0 mm
11:50 AM 47.7°F8.7°C 17.7°F-7.9°C 30% Calm Calm 3.5 mph5.6 kmh 30.12 in1020.0 mb - 0.00 in0.0 mm 0.00 in0.0 mm
12:00 PM 48.0°F8.9°C 18.0°F-7.8°C 30% 1.2 mph SSE1.9 kmh SSE 3.5 mph5.6 kmh 30.11 in1019.6 mb - 0.00 in0.0 mm 0.00 in0.0 mm
12:10 PM 48.8°F9.3°C 17.9°F-7.8°C 29% 2.3 mph SSE3.7 kmh SSE 5.8 mph9.3 kmh 30.10 in1019.3 mb - 0.00 in0.0 mm 0.00 in0.0 mm
12:20 PM 49.8°F9.9°C 18.8°F-7.3°C 29% 1.2 mph SE1.9 kmh SE 2.3 mph3.7 kmh 30.09 in1019.0 mb - 0.00 in0.0 mm 0.00 in0.0 mm
12:30 PM 50.6°F10.3°C 18.6°F-7.4°C 28% 1.2 mph SE1.9 kmh SE 3.5 mph5.6 kmh 30.09 in1019.0 mb - 0.00 in0.0 mm 0.00 in0.0 mm
12:40 PM 51.2°F10.7°C 19.2°F-7.1°C 28% 1.2 mph SSE1.9 kmh SSE 3.5 mph5.6 kmh 30.08 in1018.6 mb - 0.00 in0.0 mm 0.00 in0.0 mm
12:50 PM 51.0°F10.6°C 19.0°F-7.2°C 28% 1.2 mph S1.9 kmh S 5.8 mph9.3 kmh 30.07 in1018.3 mb - 0.00 in0.0 mm 0.00 in0.0 mm
01:00 PM 51.4°F10.8°C 18.5°F-7.5°C 27% 1.2 mph SSE1.9 kmh SSE 1.2 mph1.9 kmh 30.07 in1018.3 mb - 0.00 in0.0 mm 0.00 in0.0 mm
01:10 PM 51.8°F11.0°C 18.8°F-7.3°C 27% 1.2 mph S1.9 kmh S 3.5 mph5.6 kmh 30.06 in1017.9 mb - 0.00 in0.0 mm 0.00 in0.0 mm
01:20 PM 52.3°F11.3°C 18.4°F-7.6°C 26% Calm Calm 3.5 mph5.6 kmh 30.06 in1017.9 mb - 0.00 in0.0 mm 0.00 in0.0 mm
01:30 PM 52.7°F11.5°C 18.7°F-7.4°C 26% 1.2 mph S1.9 kmh S 3.5 mph5.6 kmh 30.05 in1017.6 mb - 0.00 in0.0 mm 0.00 in0.0 mm
01:40 PM 53.5°F11.9°C 18.5°F-7.5°C 25% 1.2 mph SSE1.9 kmh SSE 3.5 mph5.6 kmh 30.05 in1017.6 mb - 0.00 in0.0 mm 0.00 in0.0 mm
01:50 PM 53.9°F12.2°C 18.8°F-7.3°C 25% 1.2 mph SE1.9 kmh SE 2.3 mph3.7 kmh 30.05 in1017.6 mb - 0.00 in0.0 mm 0.00 in0.0 mm
02:00 PM 54.1°F12.3°C 18.0°F-7.8°C 24% 1.2 mph SSE1.9 kmh SSE 4.6 mph7.4 kmh 30.04 in1017.3 mb - 0.00 in0.0 mm 0.00 in0.0 mm
02:10 PM 54.1°F12.3°C 18.0°F-7.8°C 24% 2.3 mph SSE3.7 kmh SSE 3.5 mph5.6 kmh 30.04 in1017.3 mb - 0.00 in0.0 mm 0.00 in0.0 mm
02:20 PM 55.3°F12.9°C 18.1°F-7.7°C 23% 1.2 mph SSE1.9 kmh SSE 1.2 mph1.9 kmh 30.03 in1016.9 mb - 0.00 in0.0 mm 0.00 in0.0 mm
02:30 PM 55.2°F12.9°C 18.0°F-7.8°C 23% 1.2 mph SSE1.9 kmh SSE 3.5 mph5.6 kmh 30.03 in1016.9 mb - 0.00 in0.0 mm 0.00 in0.0 mm
02:40 PM 55.7°F13.2°C 18.4°F-7.6°C 23% 3.5 mph S5.6 kmh S 6.9 mph11.1 kmh 30.03 in1016.9 mb - 0.00 in0.0 mm 0.00 in0.0 mm
02:50 PM 56.3°F13.5°C 17.9°F-7.8°C 22% 2.3 mph SE3.7 kmh SE 6.9 mph11.1 kmh 30.02 in1016.6 mb - 0.00 in0.0 mm 0.00 in0.0 mm
03:00 PM 56.9°F13.8°C 18.4°F-7.6°C 22% 1.2 mph S1.9 kmh S 3.5 mph5.6 kmh 30.02 in1016.6 mb - 0.00 in0.0 mm 0.00 in0.0 mm
03:10 PM 57.0°F13.9°C 17.4°F-8.1°C 21% 1.2 mph SE1.9 kmh SE 3.5 mph5.6 kmh 30.02 in1016.6 mb - 0.00 in0.0 mm 0.00 in0.0 mm
03:20 PM 56.5°F13.6°C 18.1°F-7.7°C 22% 2.3 mph SSE3.7 kmh SSE 3.5 mph5.6 kmh 30.02 in1016.6 mb - 0.00 in0.0 mm 0.00 in0.0 mm
03:30 PM 56.8°F13.8°C 18.3°F-7.6°C 22% 2.3 mph SSE3.7 kmh SSE 3.5 mph5.6 kmh 30.02 in1016.6 mb - 0.00 in0.0 mm 0.00 in0.0 mm
03:40 PM 57.3°F14.1°C 18.7°F-7.4°C 22% 1.2 mph SSE1.9 kmh SSE 2.3 mph3.7 kmh 30.02 in1016.6 mb - 0.00 in0.0 mm 0.00 in0.0 mm
03:50 PM 57.1°F13.9°C 18.6°F-7.4°C 22% 2.3 mph SSE3.7 kmh SSE 5.8 mph9.3 kmh 30.02 in1016.6 mb - 0.00 in0.0 mm 0.00 in0.0 mm
04:00 PM 57.1°F13.9°C 17.5°F-8.1°C 21% 1.2 mph S1.9 kmh S 4.6 mph7.4 kmh 30.01 in1016.3 mb - 0.00 in0.0 mm 0.00 in0.0 mm
04:10 PM 56.9°F13.8°C 18.4°F-7.6°C 22% Calm Calm 3.5 mph5.6 kmh 30.01 in1016.3 mb - 0.00 in0.0 mm 0.00 in0.0 mm
04:20 PM 56.6°F13.7°C 18.1°F-7.7°C 22% 1.2 mph S1.9 kmh S 3.5 mph5.6 kmh 30.01 in1016.3 mb - 0.00 in0.0 mm 0.00 in0.0 mm
04:30 PM 56.3°F13.5°C 17.9°F-7.8°C 22% 1.2 mph S1.9 kmh S 3.5 mph5.6 kmh 30.01 in1016.3 mb - 0.00 in0.0 mm 0.00 in0.0 mm
04:40 PM 55.8°F13.2°C 17.5°F-8.1°C 22% 1.2 mph S1.9 kmh S 3.5 mph5.6 kmh 30.01 in1016.3 mb - 0.00 in0.0 mm 0.00 in0.0 mm
04:50 PM 55.4°F13.0°C 18.2°F-7.7°C 23% Calm Calm 3.5 mph5.6 kmh 30.01 in1016.3 mb - 0.00 in0.0 mm 0.00 in0.0 mm
05:00 PM 55.0°F12.8°C 17.8°F-7.9°C 23% Calm Calm 1.2 mph1.9 kmh 30.01 in1016.3 mb - 0.00 in0.0 mm 0.00 in0.0 mm
05:10 PM 54.4°F12.4°C 17.3°F-8.2°C 23% 1.2 mph S1.9 kmh S 3.5 mph5.6 kmh 30.01 in1016.3 mb - 0.00 in0.0 mm 0.00 in0.0 mm
05:20 PM 54.0°F12.2°C 18.0°F-7.8°C 24% 1.2 mph S1.9 kmh S 3.5 mph5.6 kmh 30.00 in1015.9 mb - 0.00 in0.0 mm 0.00 in0.0 mm
05:30 PM 53.7°F12.1°C 17.7°F-7.9°C 24% 2.3 mph S3.7 kmh S 3.5 mph5.6 kmh 30.01 in1016.3 mb - 0.00 in0.0 mm 0.00 in0.0 mm
05:40 PM 53.1°F11.7°C 17.2°F-8.2°C 24% 1.2 mph S1.9 kmh S 3.5 mph5.6 kmh 30.01 in1016.3 mb - 0.00 in0.0 mm 0.00 in0.0 mm
05:50 PM 52.6°F11.4°C 16.8°F-8.4°C 24% Calm Calm 1.2 mph1.9 kmh 30.01 in1016.3 mb - 0.00 in0.0 mm 0.00 in0.0 mm
06:00 PM 51.5°F10.8°C 16.8°F-8.4°C 25% Calm Calm -- 30.01 in1016.3 mb - 0.00 in0.0 mm 0.00 in0.0 mm
06:10 PM 50.6°F10.3°C 16.9°F-8.4°C 26% Calm Calm 1.2 mph1.9 kmh 30.02 in1016.6 mb - 0.00 in0.0 mm 0.00 in0.0 mm
06:20 PM 49.7°F9.8°C 16.2°F-8.8°C 26% Calm Calm 1.2 mph1.9 kmh 30.02 in1016.6 mb - 0.00 in0.0 mm 0.00 in0.0 mm
06:30 PM 49.1°F9.5°C 16.5°F-8.6°C 27% Calm Calm 1.2 mph1.9 kmh 30.02 in1016.6 mb - 0.00 in0.0 mm 0.00 in0.0 mm
06:40 PM 48.5°F9.2°C 16.0°F-8.9°C 27% 1.2 mph S1.9 kmh S 2.3 mph3.7 kmh 30.02 in1016.6 mb - 0.00 in0.0 mm 0.00 in0.0 mm
06:50 PM 47.8°F8.8°C 15.4°F-9.2°C 27% Calm Calm 1.2 mph1.9 kmh 30.02 in1016.6 mb - 0.00 in0.0 mm 0.00 in0.0 mm
07:00 PM 47.0°F8.3°C 14.7°F-9.6°C 27% 1.2 mph S1.9 kmh S 2.3 mph3.7 kmh 30.02 in1016.6 mb - 0.00 in0.0 mm 0.00 in0.0 mm
07:10 PM 46.5°F8.1°C 15.1°F-9.4°C 28% Calm Calm -- 30.02 in1016.6 mb - 0.00 in0.0 mm 0.00 in0.0 mm
07:20 PM 46.2°F7.9°C 14.8°F-9.6°C 28% Calm Calm 1.2 mph1.9 kmh 30.02 in1016.6 mb - 0.00 in0.0 mm 0.00 in0.0 mm
07:30 PM 45.9°F7.7°C 14.6°F-9.7°C 28% Calm Calm -- 30.03 in1016.9 mb - 0.00 in0.0 mm 0.00 in0.0 mm
07:40 PM 45.3°F7.4°C 14.9°F-9.5°C 29% Calm Calm -- 30.03 in1016.9 mb - 0.00 in0.0 mm 0.00 in0.0 mm
07:50 PM 44.7°F7.1°C 14.3°F-9.8°C 29% Calm Calm -- 30.03 in1016.9 mb - 0.00 in0.0 mm 0.00 in0.0 mm
08:00 PM 44.5°F6.9°C 14.9°F-9.5°C 30% Calm Calm -- 30.03 in1016.9 mb - 0.00 in0.0 mm 0.00 in0.0 mm
08:10 PM 44.1°F6.7°C 15.4°F-9.2°C 31% Calm Calm -- 30.03 in1016.9 mb - 0.00 in0.0 mm 0.00 in0.0 mm
08:20 PM 43.5°F6.4°C 14.9°F-9.5°C 31% Calm Calm -- 30.02 in1016.6 mb - 0.00 in0.0 mm 0.00 in0.0 mm
08:30 PM 43.0°F6.1°C 15.1°F-9.4°C 32% Calm Calm -- 30.03 in1016.9 mb - 0.00 in0.0 mm 0.00 in0.0 mm
08:40 PM 42.5°F5.8°C 14.7°F-9.6°C 32% Calm Calm -- 30.03 in1016.9 mb - 0.00 in0.0 mm 0.00 in0.0 mm
08:50 PM 42.1°F5.6°C 15.0°F-9.4°C 33% Calm Calm 1.2 mph1.9 kmh 30.03 in1016.9 mb - 0.00 in0.0 mm 0.00 in0.0 mm
09:00 PM 41.8°F5.4°C 14.8°F-9.6°C 33% Calm Calm -- 30.03 in1016.9 mb - 0.00 in0.0 mm 0.00 in0.0 mm
09:10 PM 41.4°F5.2°C 15.1°F-9.4°C 34% Calm Calm -- 30.03 in1016.9 mb - 0.00 in0.0 mm 0.00 in0.0 mm
09:20 PM 40.9°F4.9°C 14.7°F-9.6°C 34% Calm Calm -- 30.03 in1016.9 mb - 0.00 in0.0 mm 0.00 in0.0 mm
09:30 PM 40.3°F4.6°C 14.8°F-9.6°C 35% Calm Calm -- 30.03 in1016.9 mb - 0.00 in0.0 mm 0.00 in0.0 mm
09:40 PM 39.6°F4.2°C 14.8°F-9.6°C 36% Calm Calm -- 30.03 in1016.9 mb - 0.00 in0.0 mm 0.00 in0.0 mm
09:50 PM 39.2°F4.0°C 14.4°F-9.8°C 36% Calm Calm -- 30.03 in1016.9 mb - 0.00 in0.0 mm 0.00 in0.0 mm
10:00 PM 38.7°F3.7°C 14.6°F-9.7°C 37% Calm Calm -- 30.04 in1017.3 mb - 0.00 in0.0 mm 0.00 in0.0 mm
10:10 PM 38.3°F3.5°C 14.3°F-9.8°C 37% Calm Calm -- 30.04 in1017.3 mb - 0.00 in0.0 mm 0.00 in0.0 mm
10:20 PM 37.9°F3.3°C 14.5°F-9.7°C 38% Calm Calm -- 30.04 in1017.3 mb - 0.00 in0.0 mm 0.00 in0.0 mm
10:30 PM 37.4°F3.0°C 14.1°F-9.9°C 38% Calm Calm -- 30.04 in1017.3 mb - 0.00 in0.0 mm 0.00 in0.0 mm
10:40 PM 36.9°F2.7°C 14.2°F-9.9°C 39% Calm Calm 2.3 mph3.7 kmh 30.04 in1017.3 mb - 0.00 in0.0 mm 0.00 in0.0 mm
10:50 PM 36.5°F2.5°C 14.4°F-9.8°C 40% Calm Calm 2.3 mph3.7 kmh 30.04 in1017.3 mb - 0.00 in0.0 mm 0.00 in0.0 mm
11:00 PM 36.3°F2.4°C 14.3°F-9.8°C 40% Calm Calm -- 30.04 in1017.3 mb - 0.00 in0.0 mm 0.00 in0.0 mm
11:10 PM 36.1°F2.3°C 14.1°F-9.9°C 40% Calm Calm 1.2 mph1.9 kmh 30.04 in1017.3 mb - 0.00 in0.0 mm 0.00 in0.0 mm
11:20 PM 35.9°F2.2°C 14.5°F-9.7°C 41% Calm Calm -- 30.04 in1017.3 mb - 0.00 in0.0 mm 0.00 in0.0 mm
11:30 PM 35.6°F2.0°C 14.2°F-9.9°C 41% Calm Calm 1.2 mph1.9 kmh 30.04 in1017.3 mb - 0.00 in0.0 mm 0.00 in0.0 mm
11:40 PM 35.3°F1.8°C 13.9°F-10.1°C 41% Calm Calm 1.2 mph1.9 kmh 30.04 in1017.3 mb - 0.00 in0.0 mm 0.00 in0.0 mm
11:50 PM 34.9°F1.6°C 14.1°F-9.9°C 42% Calm Calm 1.2 mph1.9 kmh 30.04 in1017.3 mb - 0.00 in0.0 mm 0.00 in0.0 mm